createdAt,value
2023-01-07T00:01:31.206Z,73.17
2023-01-07T00:04:00.435Z,73.58
2023-01-07T00:06:33.653Z,73.55
2023-01-07T00:09:02.479Z,73.11
2023-01-07T00:11:32.508Z,72.97
2023-01-07T00:14:01.154Z,72.99
2023-01-07T00:16:30.566Z,73.23
2023-01-07T00:19:00.449Z,73.30
2023-01-07T00:21:29.206Z,73.23
2023-01-07T00:23:59.983Z,73.12
2023-01-07T00:26:31.273Z,73.06
2023-01-07T00:29:00.097Z,73.12
2023-01-07T00:31:30.821Z,73.02
2023-01-07T00:33:59.368Z,73.05
2023-01-07T00:36:29.384Z,73.01
2023-01-07T00:39:11.714Z,72.80
2023-01-07T00:42:06.066Z,72.39
2023-01-07T00:44:34.133Z,72.45
2023-01-07T00:47:02.039Z,72.56
2023-01-07T00:49:32.732Z,72.34
2023-01-07T00:52:00.632Z,72.22
2023-01-07T00:54:28.597Z,72.16
2023-01-07T00:56:56.534Z,72.07
2023-01-07T00:59:24.631Z,71.94
2023-01-07T01:01:52.729Z,71.99
2023-01-07T01:04:20.605Z,71.76
2023-01-07T01:06:48.403Z,71.42
2023-01-07T01:09:16.170Z,71.41
2023-01-07T01:11:44.841Z,71.41
2023-01-07T01:14:12.681Z,71.40
2023-01-07T01:16:40.519Z,71.37
2023-01-07T01:19:08.407Z,71.40
2023-01-07T01:21:36.355Z,71.24
2023-01-07T01:24:04.434Z,71.23
2023-01-07T01:26:32.391Z,71.22
2023-01-07T01:29:00.157Z,71.10
2023-01-07T01:31:28.527Z,70.98
2023-01-07T01:33:56.814Z,70.80
2023-01-07T01:36:25.421Z,71.01
2023-01-07T01:38:56.672Z,70.58
2023-01-07T01:41:24.573Z,70.75
2023-01-07T01:43:53.285Z,70.92
2023-01-07T01:46:24.486Z,70.76
2023-01-07T01:48:57.052Z,70.45
2023-01-07T01:51:26.711Z,70.52
2023-01-07T01:53:55.731Z,70.80
2023-01-07T01:56:32.571Z,70.79
2023-01-07T01:59:04.676Z,70.88
2023-01-07T02:01:34.777Z,70.85
2023-01-07T02:04:10.202Z,70.81
2023-01-07T02:06:52.093Z,70.68
2023-01-07T02:10:10.429Z,70.66
2023-01-07T02:12:47.675Z,70.46
2023-01-07T02:15:25.207Z,70.53
2023-01-07T02:18:28.458Z,70.22
2023-01-07T02:21:35.525Z,70.45
2023-01-07T02:24:06.241Z,70.31
2023-01-07T02:26:54.271Z,70.43
2023-01-07T02:29:25.199Z,70.39
2023-01-07T02:32:21.735Z,70.28
2023-01-07T02:35:13.951Z,70.60
2023-01-07T02:38:00.744Z,70.41
2023-01-07T02:40:43.270Z,70.77
2023-01-07T02:43:45.360Z,70.66
2023-01-07T02:46:30.367Z,70.57
2023-01-07T02:49:00.515Z,70.60
2023-01-07T02:51:35.557Z,70.56
2023-01-07T02:54:04.032Z,70.03
2023-01-07T02:56:52.043Z,70.08
2023-01-07T02:59:29.134Z,70.07
2023-01-07T03:02:21.212Z,70.06
2023-01-07T03:04:54.998Z,69.98
2023-01-07T03:07:48.836Z,70.07
2023-01-07T03:10:22.490Z,70.05
2023-01-07T03:13:02.729Z,70.02
2023-01-07T03:15:50.901Z,69.94
2023-01-07T03:18:22.712Z,69.70
2023-01-07T03:20:54.948Z,69.66
2023-01-07T03:23:23.049Z,69.44
2023-01-07T03:25:52.035Z,69.57
2023-01-07T03:28:24.453Z,69.67
2023-01-07T03:30:53.841Z,69.38
2023-01-07T03:33:26.378Z,69.27
2023-01-07T03:35:56.005Z,69.15
2023-01-07T03:38:24.857Z,68.93
2023-01-07T03:40:53.046Z,68.94
2023-01-07T03:43:23.154Z,69.07
2023-01-07T03:45:52.420Z,69.10
2023-01-07T03:48:20.752Z,68.75
2023-01-07T03:50:49.477Z,68.42
2023-01-07T03:53:17.832Z,68.44
2023-01-07T03:55:47.325Z,68.19
2023-01-07T03:58:15.060Z,68.02
2023-01-07T04:00:42.960Z,68.14
2023-01-07T04:03:14.594Z,68.04
2023-01-07T04:05:44.575Z,68.12
2023-01-07T04:08:14.208Z,68.56
2023-01-07T04:10:43.892Z,68.14
2023-01-07T04:13:12.798Z,68.46
2023-01-07T04:15:42.547Z,68.13
2023-01-07T04:18:13.278Z,68.39
2023-01-07T04:20:41.130Z,68.32
2023-01-07T04:23:09.294Z,68.31
2023-01-07T04:25:37.096Z,68.18
2023-01-07T04:28:05.449Z,68.30
2023-01-07T04:30:35.882Z,68.29
2023-01-07T04:33:05.719Z,68.07
2023-01-07T04:35:34.238Z,67.90
2023-01-07T04:38:02.912Z,67.82
2023-01-07T04:40:30.809Z,67.79
2023-01-07T04:42:59.535Z,68.33
2023-01-07T04:45:27.559Z,68.82
2023-01-07T04:47:56.558Z,68.47
2023-01-07T04:50:24.702Z,68.45
2023-01-07T04:52:53.045Z,68.83
2023-01-07T04:55:20.818Z,69.27
2023-01-07T04:57:49.321Z,69.55
2023-01-07T05:00:18.192Z,69.66
2023-01-07T05:02:47.293Z,69.69
2023-01-07T05:05:15.373Z,69.86
2023-01-07T05:07:44.624Z,69.61
2023-01-07T05:10:13.547Z,69.69
2023-01-07T05:12:41.672Z,69.62
2023-01-07T05:15:11.361Z,69.93
2023-01-07T05:17:40.786Z,70.05
2023-01-07T05:20:09.179Z,70.33
2023-01-07T05:22:37.590Z,70.30
2023-01-07T05:25:06.381Z,69.88
2023-01-07T05:27:34.167Z,70.07
2023-01-07T05:30:03.728Z,69.78
2023-01-07T05:32:31.518Z,69.97
2023-01-07T05:34:59.303Z,69.89
2023-01-07T05:37:27.062Z,69.91
2023-01-07T05:39:55.979Z,69.96
2023-01-07T05:42:23.770Z,69.91
2023-01-07T05:44:51.783Z,69.91
2023-01-07T05:47:19.512Z,69.93
2023-01-07T05:49:47.493Z,70.04
2023-01-07T05:52:15.304Z,70.17
2023-01-07T05:54:43.142Z,69.86
2023-01-07T05:57:11.345Z,69.96
2023-01-07T05:59:39.076Z,69.93
2023-01-07T06:02:06.892Z,69.83
2023-01-07T06:04:34.681Z,69.91
2023-01-07T06:07:02.501Z,69.92
2023-01-07T06:09:30.226Z,69.90
2023-01-07T06:11:58.008Z,70.15
2023-01-07T06:14:25.714Z,70.35
2023-01-07T06:16:53.476Z,70.39
2023-01-07T06:19:23.029Z,70.38
2023-01-07T06:21:50.872Z,70.32
2023-01-07T06:24:18.625Z,70.23
2023-01-07T06:26:46.416Z,70.21
2023-01-07T06:29:14.320Z,70.19
2023-01-07T06:31:42.038Z,70.18
2023-01-07T06:34:10.079Z,70.04
2023-01-07T06:36:37.844Z,70.05
2023-01-07T06:39:05.672Z,69.76
2023-01-07T06:41:33.443Z,69.87
2023-01-07T06:44:01.417Z,69.98
2023-01-07T06:46:29.459Z,69.96
2023-01-07T06:48:57.465Z,69.75
2023-01-07T06:51:25.211Z,70.01
2023-01-07T06:53:52.944Z,70.18
2023-01-07T06:56:21.011Z,70.15
2023-01-07T06:58:48.738Z,70.07
2023-01-07T07:01:16.541Z,70.28
2023-01-07T07:03:44.548Z,70.16
2023-01-07T07:06:12.359Z,69.86
2023-01-07T07:08:40.138Z,69.93
2023-01-07T07:11:07.944Z,69.90
2023-01-07T07:13:36.111Z,69.93
2023-01-07T07:16:04.273Z,69.89
2023-01-07T07:18:32.619Z,69.99
2023-01-07T07:21:00.495Z,70.00
2023-01-07T07:23:28.299Z,69.89
2023-01-07T07:25:56.058Z,69.67
2023-01-07T07:28:23.850Z,69.72
2023-01-07T07:30:51.673Z,69.72
2023-01-07T07:33:19.851Z,69.84
2023-01-07T07:35:48.242Z,69.91
2023-01-07T07:38:17.709Z,69.67
2023-01-07T07:40:46.506Z,69.71
2023-01-07T07:43:15.046Z,69.94
2023-01-07T07:45:43.233Z,69.78
2023-01-07T07:48:13.475Z,69.68
2023-01-07T07:50:41.551Z,69.65
2023-01-07T07:53:10.641Z,69.54
2023-01-07T07:55:39.074Z,69.52
2023-01-07T07:58:06.884Z,69.50
2023-01-07T08:00:34.809Z,69.06
2023-01-07T08:03:02.992Z,69.41
2023-01-07T08:05:31.273Z,69.53
2023-01-07T08:07:59.306Z,69.30
2023-01-07T08:10:27.913Z,69.20
2023-01-07T08:12:55.782Z,69.16
2023-01-07T08:15:23.579Z,69.09
2023-01-07T08:18:02.728Z,69.30
2023-01-07T08:20:31.006Z,69.20
2023-01-07T08:23:00.589Z,69.20
2023-01-07T08:25:29.848Z,69.67
2023-01-07T08:27:59.092Z,69.56
2023-01-07T08:30:28.022Z,69.68
2023-01-07T08:32:56.360Z,69.76
2023-01-07T08:35:24.320Z,69.93
2023-01-07T08:37:52.144Z,70.05
2023-01-07T08:40:19.883Z,70.02
2023-01-07T08:42:47.700Z,70.01
2023-01-07T08:45:15.623Z,70.09
2023-01-07T08:47:47.670Z,70.16
2023-01-07T08:50:15.450Z,69.95
2023-01-07T08:52:46.575Z,70.00
2023-01-07T08:55:14.455Z,70.31
2023-01-07T08:57:42.211Z,70.54
2023-01-07T09:00:10.678Z,70.26
2023-01-07T09:02:38.501Z,70.25
2023-01-07T09:05:07.084Z,70.27
2023-01-07T09:07:35.138Z,70.43
2023-01-07T09:10:03.918Z,69.77
2023-01-07T09:12:31.742Z,69.57
2023-01-07T09:14:59.567Z,69.35
2023-01-07T09:17:28.015Z,69.55
2023-01-07T09:19:55.756Z,68.69
2023-01-07T09:22:23.667Z,68.45
2023-01-07T09:24:51.439Z,68.28
2023-01-07T09:27:19.220Z,68.01
2023-01-07T09:29:46.947Z,67.17
2023-01-07T09:32:14.777Z,66.88
2023-01-07T09:34:42.472Z,66.35
2023-01-07T09:37:10.197Z,66.30
2023-01-07T09:39:37.987Z,66.37
2023-01-07T09:42:13.696Z,66.63
2023-01-07T09:45:01.414Z,66.69
2023-01-07T09:47:29.710Z,66.81
2023-01-07T09:50:02.256Z,66.98
2023-01-07T09:52:44.433Z,66.86
2023-01-07T09:55:19.972Z,66.73
2023-01-07T09:57:48.416Z,66.24
2023-01-07T10:00:22.669Z,65.73
2023-01-07T10:03:06.485Z,64.64
2023-01-07T10:05:37.021Z,63.64
2023-01-07T10:08:32.164Z,62.77
2023-01-07T10:11:03.109Z,62.09
2023-01-07T10:13:49.188Z,61.57
2023-01-07T10:16:45.906Z,61.06
2023-01-07T10:19:19.768Z,61.28
2023-01-07T10:21:54.004Z,61.44
2023-01-07T10:24:27.844Z,61.75
2023-01-07T10:26:58.821Z,61.91
2023-01-07T10:29:32.791Z,62.41
2023-01-07T10:32:10.640Z,62.97
2023-01-07T10:34:46.244Z,62.88
2023-01-07T10:37:33.783Z,63.24
2023-01-07T10:40:23.108Z,63.35
2023-01-07T10:42:54.535Z,63.54
2023-01-07T10:45:50.117Z,63.65
2023-01-07T10:48:39.812Z,63.84
2023-01-07T10:51:23.374Z,63.80
2023-01-07T10:54:06.546Z,63.76
2023-01-07T10:56:47.000Z,63.92
2023-01-07T10:59:17.774Z,64.12
2023-01-07T11:01:49.067Z,64.27
2023-01-07T11:04:17.622Z,64.36
2023-01-07T11:06:57.565Z,64.45
2023-01-07T11:09:35.618Z,64.69
2023-01-07T11:12:21.563Z,64.60
2023-01-07T11:14:49.664Z,64.76
2023-01-07T11:17:36.396Z,64.98
2023-01-07T11:20:05.378Z,65.18
2023-01-07T11:22:35.763Z,65.10
2023-01-07T11:25:28.165Z,65.12
2023-01-07T11:28:01.094Z,65.25
2023-01-07T11:30:29.656Z,65.30
2023-01-07T11:33:07.125Z,65.26
2023-01-07T11:35:35.111Z,65.30
2023-01-07T11:38:03.056Z,65.08
2023-01-07T11:40:32.502Z,65.09
2023-01-07T11:43:01.578Z,65.17
2023-01-07T11:45:38.531Z,65.18
2023-01-07T11:48:08.732Z,65.27
2023-01-07T11:50:37.518Z,65.26
2023-01-07T11:53:14.569Z,65.25
2023-01-07T11:56:00.041Z,65.23
2023-01-07T11:58:33.938Z,65.19
2023-01-07T12:01:07.592Z,65.23
2023-01-07T12:03:46.151Z,64.91
2023-01-07T12:06:19.364Z,65.05
2023-01-07T12:09:27.244Z,65.06
2023-01-07T12:11:57.590Z,64.40
2023-01-07T12:14:31.447Z,63.72
2023-01-07T12:17:16.399Z,62.96
2023-01-07T12:20:06.210Z,62.29
2023-01-07T12:22:40.172Z,61.81
2023-01-07T12:25:34.648Z,60.98
2023-01-07T12:28:46.961Z,60.52
2023-01-07T12:31:39.882Z,59.38
2023-01-07T12:34:25.728Z,58.27
2023-01-07T12:37:12.630Z,57.61
2023-01-07T12:39:44.092Z,56.59
2023-01-07T12:44:56.941Z,54.07
2023-01-07T12:47:31.322Z,52.71
2023-01-07T12:50:06.934Z,52.56
2023-01-07T12:53:00.740Z,52.21
2023-01-07T12:55:35.713Z,52.01
2023-01-07T12:58:26.016Z,51.29
2023-01-07T13:01:05.269Z,50.32
2023-01-07T13:03:45.405Z,49.44
2023-01-07T13:06:34.566Z,49.20
2023-01-07T13:09:09.790Z,49.26
2023-01-07T13:12:01.134Z,48.93
2023-01-07T13:14:37.389Z,48.61
2023-01-07T13:17:24.747Z,48.70
2023-01-07T13:19:53.795Z,48.55
2023-01-07T13:22:30.783Z,48.66
2023-01-07T13:25:17.837Z,48.15
2023-01-07T13:28:19.330Z,47.70
2023-01-07T13:31:29.856Z,47.30
2023-01-07T13:34:42.139Z,46.65
2023-01-07T13:37:31.444Z,44.81
2023-01-07T13:40:06.266Z,45.17
2023-01-07T13:42:43.219Z,44.72
2023-01-07T13:45:25.100Z,44.62
2023-01-07T13:47:58.587Z,44.08
2023-01-07T13:50:39.519Z,44.33
2023-01-07T13:53:27.396Z,45.01
2023-01-07T13:56:17.844Z,45.49
2023-01-07T13:58:56.302Z,46.11
2023-01-07T14:01:34.959Z,45.41
2023-01-07T14:04:09.089Z,45.09
2023-01-07T14:06:40.013Z,45.36
2023-01-07T14:09:07.761Z,45.71
2023-01-07T14:11:36.187Z,45.98
2023-01-07T14:14:13.118Z,45.93
2023-01-07T14:16:43.184Z,46.96
2023-01-07T14:19:16.743Z,47.79
2023-01-07T14:22:01.528Z,48.12
2023-01-07T14:24:41.633Z,48.57
2023-01-07T14:27:30.513Z,49.14
2023-01-07T14:30:15.970Z,49.45
2023-01-07T14:32:44.883Z,49.75
2023-01-07T14:35:12.934Z,49.66
2023-01-07T14:37:45.223Z,49.16
2023-01-07T14:40:34.595Z,49.11
2023-01-07T14:43:03.734Z,49.00
2023-01-07T14:45:38.322Z,49.19
2023-01-07T14:48:08.829Z,49.53
2023-01-07T14:50:42.421Z,50.06
2023-01-07T14:53:16.154Z,50.53
2023-01-07T14:55:57.037Z,51.13
2023-01-07T14:58:39.924Z,51.64
2023-01-07T15:01:26.712Z,52.27
2023-01-07T15:04:18.067Z,52.59
2023-01-07T15:06:46.449Z,53.17
2023-01-07T15:09:36.666Z,53.56
2023-01-07T15:12:26.513Z,53.94
2023-01-07T15:15:22.815Z,54.29
2023-01-07T15:17:50.641Z,54.77
2023-01-07T15:20:18.452Z,55.15
2023-01-07T15:23:10.875Z,55.55
2023-01-07T15:26:05.690Z,55.78
2023-01-07T15:28:46.115Z,56.19
2023-01-07T15:31:36.126Z,56.50
2023-01-07T15:34:08.867Z,56.75
2023-01-07T15:36:45.520Z,57.11
2023-01-07T15:39:22.633Z,57.41
2023-01-07T15:41:53.155Z,57.48
2023-01-07T15:44:22.353Z,57.76
2023-01-07T15:46:50.347Z,57.86
2023-01-07T15:49:23.995Z,58.09
2023-01-07T15:51:59.714Z,58.44
2023-01-07T15:54:34.864Z,58.52
2023-01-07T15:57:04.696Z,58.87
2023-01-07T15:59:35.695Z,59.00
2023-01-07T16:02:24.231Z,59.13
2023-01-07T16:04:55.185Z,59.37
2023-01-07T16:07:43.186Z,59.61
2023-01-07T16:10:22.147Z,59.71
2023-01-07T16:12:52.548Z,59.77
2023-01-07T16:15:21.659Z,60.00
2023-01-07T16:17:51.330Z,60.20
2023-01-07T16:20:29.400Z,60.03
2023-01-07T16:23:27.066Z,60.31
2023-01-07T16:26:10.595Z,60.53
2023-01-07T16:28:41.960Z,60.67
2023-01-07T16:31:13.159Z,60.97
2023-01-07T16:33:42.488Z,61.01
2023-01-07T16:36:19.611Z,61.03
2023-01-07T16:38:52.185Z,61.02
2023-01-07T16:41:23.511Z,61.03
2023-01-07T16:43:54.157Z,61.13
2023-01-07T16:46:29.760Z,61.15
2023-01-07T16:49:30.205Z,61.27
2023-01-07T16:52:04.128Z,61.39
2023-01-07T16:54:37.355Z,61.61
2023-01-07T16:57:11.709Z,61.63
2023-01-07T16:59:45.843Z,61.77
2023-01-07T17:02:28.887Z,61.55
2023-01-07T17:05:12.849Z,61.52
2023-01-07T17:07:41.494Z,61.77
2023-01-07T17:10:28.037Z,61.93
2023-01-07T17:12:59.472Z,61.91
2023-01-07T17:15:33.745Z,62.05
2023-01-07T17:18:14.515Z,62.08
2023-01-07T17:20:53.264Z,62.18
2023-01-07T17:23:27.549Z,62.06
2023-01-07T17:26:07.809Z,62.09
2023-01-07T17:28:43.311Z,62.48
2023-01-07T17:31:11.292Z,62.83
2023-01-07T17:33:39.690Z,63.06
2023-01-07T17:36:15.024Z,63.44
2023-01-07T17:38:43.704Z,63.33
2023-01-07T17:41:33.229Z,63.58
2023-01-07T17:44:01.869Z,64.07
2023-01-07T17:46:32.613Z,64.29
2023-01-07T17:49:03.661Z,64.69
2023-01-07T17:51:33.053Z,65.10
2023-01-07T17:54:01.012Z,65.28
2023-01-07T17:56:29.263Z,65.42
2023-01-07T17:58:57.090Z,65.27
2023-01-07T18:01:25.993Z,65.70
2023-01-07T18:03:54.365Z,66.20
2023-01-07T18:06:24.653Z,66.40
2023-01-07T18:08:53.449Z,66.43
2023-01-07T18:11:43.585Z,66.93
2023-01-07T18:14:15.517Z,67.15
2023-01-07T18:16:43.401Z,67.03
2023-01-07T18:19:14.884Z,67.17
2023-01-07T18:21:43.139Z,67.56
2023-01-07T18:24:18.579Z,67.46
2023-01-07T18:26:47.123Z,67.70
2023-01-07T18:29:15.019Z,67.77
2023-01-07T18:31:44.097Z,67.83
2023-01-07T18:34:13.672Z,67.91
2023-01-07T18:36:41.782Z,67.93
2023-01-07T18:39:10.773Z,67.84
2023-01-07T18:41:39.723Z,68.04
2023-01-07T18:44:07.570Z,68.02
2023-01-07T18:46:35.336Z,68.11
2023-01-07T18:49:03.158Z,67.89
2023-01-07T18:51:30.886Z,67.74
2023-01-07T18:53:58.901Z,67.60
2023-01-07T18:56:26.736Z,67.46
2023-01-07T18:58:55.188Z,67.14
2023-01-07T19:01:23.429Z,67.20
2023-01-07T19:03:51.625Z,67.38
2023-01-07T19:06:19.611Z,67.70
2023-01-07T19:08:47.320Z,67.85
2023-01-07T19:11:22.257Z,67.67
2023-01-07T19:13:50.104Z,68.17
2023-01-07T19:16:18.223Z,68.38
2023-01-07T19:18:46.411Z,68.44
2023-01-07T19:21:14.798Z,68.23
2023-01-07T19:23:42.805Z,68.12
2023-01-07T19:26:11.530Z,68.04
2023-01-07T19:28:39.304Z,67.98
2023-01-07T19:31:08.462Z,68.27
2023-01-07T19:33:36.889Z,68.13
2023-01-07T19:36:09.021Z,68.56
2023-01-07T19:38:42.248Z,68.57
2023-01-07T19:41:16.914Z,68.64
2023-01-07T19:43:46.424Z,68.67
2023-01-07T19:46:21.114Z,68.87
2023-01-07T19:48:49.531Z,68.67
2023-01-07T19:51:17.329Z,68.43
2023-01-07T19:53:45.162Z,68.74
2023-01-07T19:56:12.997Z,68.60
2023-01-07T19:58:42.102Z,68.48
2023-01-07T20:01:15.824Z,68.54
2023-01-07T20:03:44.392Z,68.30
2023-01-07T20:06:14.581Z,68.12
2023-01-07T20:08:42.439Z,68.22
2023-01-07T20:11:10.689Z,67.77
2023-01-07T20:13:39.435Z,67.55
2023-01-07T20:16:09.575Z,67.51
2023-01-07T20:18:39.003Z,67.37
2023-01-07T20:21:07.661Z,67.65
2023-01-07T20:23:38.874Z,67.78
2023-01-07T20:26:12.021Z,67.78
2023-01-07T20:28:41.051Z,67.95
2023-01-07T20:31:11.498Z,67.83
2023-01-07T20:33:40.690Z,68.15
2023-01-07T20:36:10.795Z,68.39
2023-01-07T20:38:39.206Z,68.30
2023-01-07T20:41:08.358Z,68.38
2023-01-07T20:43:37.187Z,68.48
2023-01-07T20:46:07.914Z,68.33
2023-01-07T20:48:35.944Z,68.51
2023-01-07T20:51:08.736Z,68.30
2023-01-07T20:53:36.693Z,68.64
2023-01-07T20:56:05.333Z,68.94
2023-01-07T20:58:35.193Z,69.02
2023-01-07T21:01:07.913Z,69.09
2023-01-07T21:03:35.965Z,69.06
2023-01-07T21:06:04.308Z,69.24
2023-01-07T21:08:32.000Z,69.41
2023-01-07T21:10:59.776Z,69.46
2023-01-07T21:13:27.597Z,69.44
2023-01-07T21:16:02.723Z,69.37
2023-01-07T21:18:31.894Z,69.25
2023-01-07T21:21:00.922Z,69.16
2023-01-07T21:23:29.077Z,69.23
2023-01-07T21:25:57.124Z,69.49
2023-01-07T21:28:25.882Z,69.36
2023-01-07T21:30:53.704Z,69.34
2023-01-07T21:33:21.442Z,69.55
2023-01-07T21:35:49.167Z,69.49
2023-01-07T21:38:17.320Z,69.78
2023-01-07T21:40:47.116Z,69.89
2023-01-07T21:43:14.816Z,70.14
2023-01-07T21:45:42.813Z,69.90
2023-01-07T21:48:10.684Z,69.84
2023-01-07T21:50:38.713Z,69.87
2023-01-07T21:53:06.584Z,69.97
2023-01-07T21:55:37.862Z,70.06
2023-01-07T21:58:05.650Z,70.13
2023-01-07T22:00:33.411Z,69.85
2023-01-07T22:03:01.403Z,70.07
2023-01-07T22:05:29.493Z,70.01
2023-01-07T22:07:57.206Z,70.06
2023-01-07T22:10:25.066Z,70.18
2023-01-07T22:12:52.927Z,70.34
2023-01-07T22:19:40.962Z,70.79
2023-01-07T22:22:12.047Z,70.76
2023-01-07T22:24:44.176Z,70.77
2023-01-07T22:27:13.174Z,70.76
2023-01-07T22:29:46.956Z,70.74
2023-01-07T22:32:23.116Z,70.84
2023-01-07T22:34:52.143Z,71.03
2023-01-07T22:37:21.861Z,71.17
2023-01-07T22:39:57.976Z,70.96
2023-01-07T22:42:33.796Z,70.93
2023-01-07T22:45:10.005Z,70.80
2023-01-07T22:47:41.935Z,70.92
2023-01-07T22:50:11.331Z,70.80
2023-01-07T22:52:40.245Z,70.57
2023-01-07T22:55:09.504Z,70.97
2023-01-07T22:57:39.513Z,70.76
2023-01-07T23:00:16.482Z,70.75
2023-01-07T23:02:45.490Z,70.80
2023-01-07T23:05:14.603Z,70.86
2023-01-07T23:07:43.354Z,71.00
2023-01-07T23:10:12.286Z,70.64
2023-01-07T23:12:41.061Z,70.72
2023-01-07T23:15:10.391Z,70.33
2023-01-07T23:17:39.342Z,70.38
2023-01-07T23:20:08.953Z,70.32
2023-01-07T23:22:38.052Z,70.58
2023-01-07T23:25:07.059Z,70.43
2023-01-07T23:27:34.907Z,70.15
2023-01-07T23:30:02.849Z,70.15
2023-01-07T23:32:30.717Z,69.91
2023-01-07T23:34:58.432Z,69.77
2023-01-07T23:37:26.404Z,69.90
2023-01-07T23:39:54.105Z,70.01
2023-01-07T23:42:22.075Z,70.10
2023-01-07T23:44:49.851Z,70.47
2023-01-07T23:47:17.573Z,70.40
2023-01-07T23:49:45.332Z,70.54
2023-01-07T23:52:13.103Z,70.03
2023-01-07T23:54:41.175Z,69.80
2023-01-07T23:57:09.269Z,69.79
2023-01-07T23:59:37.844Z,69.48
